sensor_id;sensor_type;location;lat;lon;timestamp;pressure;altitude;pressure_sealevel;temperature;humidity
31285;BME280;56605;51.516;6.742;2023-03-20T00:01:26;101775.69;;;8.16;100.00
31285;BME280;56605;51.516;6.742;2023-03-20T00:03:53;101775.69;;;8.16;100.00
31285;BME280;56605;51.516;6.742;2023-03-20T00:06:23;101779.31;;;8.15;100.00
31285;BME280;56605;51.516;6.742;2023-03-20T00:08:52;101771.38;;;8.04;100.00
31285;BME280;56605;51.516;6.742;2023-03-20T00:13:56;101770.53;;;8.03;100.00
31285;BME280;56605;51.516;6.742;2023-03-20T00:16:23;101768.59;;;8.05;100.00
31285;BME280;56605;51.516;6.742;2023-03-20T00:18:49;101762.56;;;8.03;100.00
31285;BME280;56605;51.516;6.742;2023-03-20T00:21:16;101766.88;;;8.04;100.00
31285;BME280;56605;51.516;6.742;2023-03-20T00:23:42;101766.03;;;8.15;100.00
31285;BME280;56605;51.516;6.742;2023-03-20T00:26:12;101773.69;;;8.08;100.00
31285;BME280;56605;51.516;6.742;2023-03-20T00:28:40;101787.09;;;8.07;100.00
31285;BME280;56605;51.516;6.742;2023-03-20T00:34:00;101790.94;;;8.03;100.00
31285;BME280;56605;51.516;6.742;2023-03-20T00:36:26;101778.19;;;7.96;100.00
31285;BME280;56605;51.516;6.742;2023-03-20T00:38:52;101787.84;;;7.97;100.00
31285;BME280;56605;51.516;6.742;2023-03-20T00:41:30;101777.19;;;7.97;100.00
31285;BME280;56605;51.516;6.742;2023-03-20T00:46:48;101779.13;;;7.95;100.00
31285;BME280;56605;51.516;6.742;2023-03-20T00:49:14;101778.19;;;7.96;100.00
31285;BME280;56605;51.516;6.742;2023-03-20T00:51:40;101778.19;;;7.96;100.00
31285;BME280;56605;51.516;6.742;2023-03-20T00:54:14;101770.66;;;8.02;100.00
31285;BME280;56605;51.516;6.742;2023-03-20T00:56:47;101766.81;;;7.94;100.00
31285;BME280;56605;51.516;6.742;2023-03-20T00:59:19;101765.13;;;7.82;100.00
31285;BME280;56605;51.516;6.742;2023-03-20T01:01:45;101767.94;;;7.80;100.00
31285;BME280;56605;51.516;6.742;2023-03-20T01:04:13;101766.84;;;7.83;100.00
31285;BME280;56605;51.516;6.742;2023-03-20T01:06:39;101756.66;;;7.88;100.00
31285;BME280;56605;51.516;6.742;2023-03-20T01:09:05;101767.31;;;7.88;100.00
31285;BME280;56605;51.516;6.742;2023-03-20T01:11:30;101777.34;;;7.84;100.00
31285;BME280;56605;51.516;6.742;2023-03-20T01:13:56;101761.66;;;7.81;100.00
31285;BME280;56605;51.516;6.742;2023-03-20T01:16:23;101758.63;;;7.86;100.00
31285;BME280;56605;51.516;6.742;2023-03-20T01:18:50;101756.78;;;7.86;100.00
31285;BME280;56605;51.516;6.742;2023-03-20T01:21:16;101756.69;;;7.77;100.00
31285;BME280;56605;51.516;6.742;2023-03-20T01:23:42;101766.97;;;7.81;100.00
31285;BME280;56605;51.516;6.742;2023-03-20T01:26:19;101768.66;;;7.82;100.00
31285;BME280;56605;51.516;6.742;2023-03-20T01:28:46;101764.31;;;7.81;100.00
31285;BME280;56605;51.516;6.742;2023-03-20T01:31:14;101764.19;;;7.83;100.00
31285;BME280;56605;51.516;6.742;2023-03-20T01:33:39;101756.56;;;7.78;100.00
31285;BME280;56605;51.516;6.742;2023-03-20T01:36:05;101761.03;;;7.78;100.00
31285;BME280;56605;51.516;6.742;2023-03-20T01:38:30;101756.22;;;7.71;100.00
31285;BME280;56605;51.516;6.742;2023-03-20T01:41:03;101755.25;;;7.72;100.00
31285;BME280;56605;51.516;6.742;2023-03-20T01:43:31;101747.53;;;7.69;100.00
31285;BME280;56605;51.516;6.742;2023-03-20T01:46:29;101741.59;;;7.66;100.00
31285;BME280;56605;51.516;6.742;2023-03-20T01:48:59;101750.31;;;7.68;100.00
31285;BME280;56605;51.516;6.742;2023-03-20T01:51:30;101750.66;;;7.74;100.00
31285;BME280;56605;51.516;6.742;2023-03-20T01:56:30;101753.69;;;7.70;100.00
31285;BME280;56605;51.516;6.742;2023-03-20T01:58:59;101762.16;;;7.64;100.00
31285;BME280;56605;51.516;6.742;2023-03-20T02:01:26;101769.03;;;7.66;100.00
31285;BME280;56605;51.516;6.742;2023-03-20T02:03:52;101761.06;;;7.66;100.00
31285;BME280;56605;51.516;6.742;2023-03-20T02:06:21;101774.97;;;7.70;100.00
31285;BME280;56605;51.516;6.742;2023-03-20T02:08:49;101775.66;;;7.72;100.00
31285;BME280;56605;51.516;6.742;2023-03-20T02:11:15;101775.66;;;7.72;100.00
31285;BME280;56605;51.516;6.742;2023-03-20T02:13:43;101765.91;;;7.72;100.00
31285;BME280;56605;51.516;6.742;2023-03-20T02:16:11;101769.25;;;7.74;100.00
31285;BME280;56605;51.516;6.742;2023-03-20T02:18:38;101765.78;;;7.74;100.00
31285;BME280;56605;51.516;6.742;2023-03-20T02:27:23;101767.84;;;7.59;100.00
31285;BME280;56605;51.516;6.742;2023-03-20T02:35:32;101782.31;;;7.66;100.00
31285;BME280;56605;51.516;6.742;2023-03-20T02:38:19;101776.66;;;7.59;100.00
31285;BME280;56605;51.516;6.742;2023-03-20T02:47:20;101772.19;;;7.60;100.00
31285;BME280;56605;51.516;6.742;2023-03-20T02:55:27;101756.13;;;7.61;100.00
31285;BME280;56605;51.516;6.742;2023-03-20T02:58:25;101777.88;;;7.67;100.00
31285;BME280;56605;51.516;6.742;2023-03-20T03:01:15;101777.47;;;7.71;100.00
31285;BME280;56605;51.516;6.742;2023-03-20T03:03:46;101774.44;;;7.76;100.00
31285;BME280;56605;51.516;6.742;2023-03-20T03:06:21;101764.91;;;7.73;100.00
31285;BME280;56605;51.516;6.742;2023-03-20T03:08:59;101748.84;;;7.75;100.00
31285;BME280;56605;51.516;6.742;2023-03-20T03:11:26;101731.81;;;7.66;100.00
31285;BME280;56605;51.516;6.742;2023-03-20T03:13:53;101723.13;;;7.64;100.00
31285;BME280;56605;51.516;6.742;2023-03-20T03:16:34;101742.59;;;7.65;100.00
31285;BME280;56605;51.516;6.742;2023-03-20T03:19:22;101729.91;;;7.57;100.00
31285;BME280;56605;51.516;6.742;2023-03-20T03:21:48;101733.53;;;7.56;100.00
31285;BME280;56605;51.516;6.742;2023-03-20T03:24:34;101723.28;;;7.51;100.00
31285;BME280;56605;51.516;6.742;2023-03-20T03:27:02;101722.56;;;7.49;100.00
31285;BME280;56605;51.516;6.742;2023-03-20T03:29:35;101722.94;;;7.44;100.00
31285;BME280;56605;51.516;6.742;2023-03-20T03:32:04;101733.19;;;7.38;100.00
31285;BME280;56605;51.516;6.742;2023-03-20T03:34:30;101744.06;;;7.34;100.00
31285;BME280;56605;51.516;6.742;2023-03-20T03:37:16;101730.78;;;7.34;100.00
31285;BME280;56605;51.516;6.742;2023-03-20T03:39:52;101746.59;;;7.36;100.00
31285;BME280;56605;51.516;6.742;2023-03-20T03:47:36;101749.63;;;7.43;100.00
31285;BME280;56605;51.516;6.742;2023-03-20T03:52:40;101752.88;;;7.35;100.00
31285;BME280;56605;51.516;6.742;2023-03-20T03:55:13;101763.50;;;7.35;100.00
31285;BME280;56605;51.516;6.742;2023-03-20T03:57:43;101773.78;;;7.40;100.00
31285;BME280;56605;51.516;6.742;2023-03-20T04:00:13;101764.25;;;7.37;100.00
31285;BME280;56605;51.516;6.742;2023-03-20T04:02:42;101764.81;;;7.41;100.00
31285;BME280;56605;51.516;6.742;2023-03-20T04:05:10;101755.06;;;7.41;100.00
31285;BME280;56605;51.516;6.742;2023-03-20T04:07:37;101747.44;;;7.36;100.00
31285;BME280;56605;51.516;6.742;2023-03-20T04:10:03;101741.28;;;7.36;100.00
31285;BME280;56605;51.516;6.742;2023-03-20T04:12:34;101743.25;;;7.22;100.00
31285;BME280;56605;51.516;6.742;2023-03-20T04:15:00;101735.88;;;7.15;100.00
31285;BME280;56605;51.516;6.742;2023-03-20T04:17:25;101726.56;;;7.09;100.00
31285;BME280;56605;51.516;6.742;2023-03-20T04:19:50;101721.72;;;7.03;100.00
31285;BME280;56605;51.516;6.742;2023-03-20T04:22:16;101728.84;;;7.02;100.00
31285;BME280;56605;51.516;6.742;2023-03-20T04:24:41;101727.16;;;7.01;100.00
31285;BME280;56605;51.516;6.742;2023-03-20T04:27:06;101730.91;;;6.98;100.00
31285;BME280;56605;51.516;6.742;2023-03-20T04:29:32;101715.09;;;6.97;100.00
31285;BME280;56605;51.516;6.742;2023-03-20T04:31:57;101726.31;;;6.89;100.00
31285;BME280;56605;51.516;6.742;2023-03-20T04:34:24;101719.78;;;6.93;100.00
31285;BME280;56605;51.516;6.742;2023-03-20T04:36:49;101713.03;;;6.89;100.00
31285;BME280;56605;51.516;6.742;2023-03-20T04:39:15;101718.34;;;6.89;100.00
31285;BME280;56605;51.516;6.742;2023-03-20T04:41:40;101715.34;;;6.82;100.00
31285;BME280;56605;51.516;6.742;2023-03-20T04:44:06;101727.50;;;6.85;100.00
31285;BME280;56605;51.516;6.742;2023-03-20T04:46:31;101720.63;;;6.82;100.00
31285;BME280;56605;51.516;6.742;2023-03-20T04:48:57;101721.34;;;6.84;100.00
31285;BME280;56605;51.516;6.742;2023-03-20T04:51:22;101709.91;;;6.84;100.00
31285;BME280;56605;51.516;6.742;2023-03-20T04:53:47;101715.06;;;6.85;100.00
31285;BME280;56605;51.516;6.742;2023-03-20T04:56:13;101715.91;;;6.86;100.00
31285;BME280;56605;51.516;6.742;2023-03-20T04:58:38;101717.00;;;6.83;100.00
31285;BME280;56605;51.516;6.742;2023-03-20T05:01:03;101715.34;;;6.82;100.00
31285;BME280;56605;51.516;6.742;2023-03-20T05:03:29;101722.31;;;6.83;100.00
31285;BME280;56605;51.516;6.742;2023-03-20T05:05:54;101724.34;;;6.80;100.00
31285;BME280;56605;51.516;6.742;2023-03-20T05:08:19;101724.34;;;6.80;100.00
31285;BME280;56605;51.516;6.742;2023-03-20T05:10:45;101722.56;;;6.80;100.00
31285;BME280;56605;51.516;6.742;2023-03-20T05:13:10;101719.66;;;6.72;100.00
31285;BME280;56605;51.516;6.742;2023-03-20T05:15:35;101717.00;;;6.72;100.00
31285;BME280;56605;51.516;6.742;2023-03-20T05:18:02;101714.81;;;6.66;100.00
31285;BME280;56605;51.516;6.742;2023-03-20T05:20:27;101715.91;;;6.63;100.00
31285;BME280;56605;51.516;6.742;2023-03-20T05:22:53;101724.81;;;6.62;100.00
31285;BME280;56605;51.516;6.742;2023-03-20T05:25:18;101719.63;;;6.60;100.00
31285;BME280;56605;51.516;6.742;2023-03-20T05:27:45;101728.31;;;6.63;100.00
31285;BME280;56605;51.516;6.742;2023-03-20T05:30:12;101729.06;;;6.65;100.00
31285;BME280;56605;51.516;6.742;2023-03-20T05:32:37;101733.28;;;6.67;100.00
31285;BME280;56605;51.516;6.742;2023-03-20T05:35:03;101726.63;;;6.62;100.00
31285;BME280;56605;51.516;6.742;2023-03-20T05:37:29;101730.84;;;6.64;100.00
31285;BME280;56605;51.516;6.742;2023-03-20T05:39:54;101739.28;;;6.58;100.00
31285;BME280;56605;51.516;6.742;2023-03-20T05:42:20;101738.69;;;6.54;100.00
31285;BME280;56605;51.516;6.742;2023-03-20T05:44:45;101733.72;;;6.50;100.00
31285;BME280;56605;51.516;6.742;2023-03-20T05:47:10;101736.03;;;6.54;100.00
31285;BME280;56605;51.516;6.742;2023-03-20T05:49:36;101733.59;;;6.51;100.00
31285;BME280;56605;51.516;6.742;2023-03-20T05:52:01;101727.44;;;6.51;100.00
31285;BME280;56605;51.516;6.742;2023-03-20T05:54:26;101728.28;;;6.51;100.00
31285;BME280;56605;51.516;6.742;2023-03-20T05:56:52;101727.31;;;6.52;100.00
31285;BME280;56605;51.516;6.742;2023-03-20T05:59:17;101716.59;;;6.54;100.00
31285;BME280;56605;51.516;6.742;2023-03-20T06:01:42;101710.66;;;6.50;100.00
31285;BME280;56605;51.516;6.742;2023-03-20T06:04:07;101727.56;;;6.49;100.00
31285;BME280;56605;51.516;6.742;2023-03-20T06:06:33;101721.28;;;6.50;100.00
31285;BME280;56605;51.516;6.742;2023-03-20T06:09:02;101720.00;;;6.56;100.00
31285;BME280;56605;51.516;6.742;2023-03-20T06:11:28;101728.88;;;6.55;100.00
31285;BME280;56605;51.516;6.742;2023-03-20T06:13:53;101732.16;;;6.58;100.00
31285;BME280;56605;51.516;6.742;2023-03-20T06:16:20;101720.94;;;6.55;100.00
31285;BME280;56605;51.516;6.742;2023-03-20T06:18:45;101716.59;;;6.54;100.00
31285;BME280;56605;51.516;6.742;2023-03-20T06:21:10;101728.41;;;6.50;100.00
31285;BME280;56605;51.516;6.742;2023-03-20T06:23:37;101726.47;;;6.52;100.00
31285;BME280;56605;51.516;6.742;2023-03-20T06:28:58;101738.16;;;6.49;100.00
31285;BME280;56605;51.516;6.742;2023-03-20T06:31:23;101748.78;;;6.49;100.00
31285;BME280;56605;51.516;6.742;2023-03-20T06:33:48;101745.41;;;6.47;100.00
31285;BME280;56605;51.516;6.742;2023-03-20T06:36:13;101751.31;;;6.51;100.00
31285;BME280;56605;51.516;6.742;2023-03-20T06:38:39;101762.91;;;6.50;100.00
31285;BME280;56605;51.516;6.742;2023-03-20T06:41:05;101767.13;;;6.52;100.00
31285;BME280;56605;51.516;6.742;2023-03-20T06:43:31;101760.84;;;6.53;100.00
31285;BME280;56605;51.516;6.742;2023-03-20T06:45:56;101764.50;;;6.64;100.00
31285;BME280;56605;51.516;6.742;2023-03-20T06:48:21;101764.00;;;6.58;100.00
31285;BME280;56605;51.516;6.742;2023-03-20T06:50:50;101769.31;;;6.58;100.00
31285;BME280;56605;51.516;6.742;2023-03-20T06:53:16;101781.13;;;6.54;100.00
31285;BME280;56605;51.516;6.742;2023-03-20T06:55:45;101779.06;;;6.58;100.00
31285;BME280;56605;51.516;6.742;2023-03-20T06:58:10;101782.47;;;6.60;100.00
31285;BME280;56605;51.516;6.742;2023-03-20T07:00:35;101782.69;;;6.57;100.00
31285;BME280;56605;51.516;6.742;2023-03-20T07:03:01;101781.38;;;6.63;100.00
31285;BME280;56605;51.516;6.742;2023-03-20T07:05:27;101775.34;;;6.60;100.00
31285;BME280;56605;51.516;6.742;2023-03-20T07:07:53;101769.31;;;6.58;100.00
31285;BME280;56605;51.516;6.742;2023-03-20T07:10:18;101775.84;;;6.66;100.00
31285;BME280;56605;51.516;6.742;2023-03-20T07:12:43;101767.03;;;6.65;100.00
31285;BME280;56605;51.516;6.742;2023-03-20T07:15:09;101766.81;;;6.68;100.00
31285;BME280;56605;51.516;6.742;2023-03-20T07:17:35;101763.81;;;6.73;100.00
31285;BME280;56605;51.516;6.742;2023-03-20T07:20:01;101779.97;;;6.81;100.00
31285;BME280;56605;51.516;6.742;2023-03-20T07:22:28;101774.44;;;6.84;100.00
31285;BME280;56605;51.516;6.742;2023-03-20T07:24:53;101776.50;;;6.92;100.00
31285;BME280;56605;51.516;6.742;2023-03-20T07:27:19;101772.53;;;6.87;100.00
31285;BME280;56605;51.516;6.742;2023-03-20T07:29:45;101774.09;;;6.89;100.00
31285;BME280;56605;51.516;6.742;2023-03-20T07:32:10;101777.47;;;6.91;100.00
31285;BME280;56605;51.516;6.742;2023-03-20T07:34:36;101772.41;;;7.00;100.00
31285;BME280;56605;51.516;6.742;2023-03-20T07:37:02;101788.13;;;7.03;100.00
31285;BME280;56605;51.516;6.742;2023-03-20T07:39:27;101780.38;;;7.11;100.00
31285;BME280;56605;51.516;6.742;2023-03-20T07:41:53;101784.13;;;7.08;100.00
31285;BME280;56605;51.516;6.742;2023-03-20T07:44:18;101788.34;;;7.11;100.00
31285;BME280;56605;51.516;6.742;2023-03-20T07:46:44;101795.63;;;7.20;100.00
31285;BME280;56605;51.516;6.742;2023-03-20T07:49:14;101792.34;;;7.17;100.00
31285;BME280;56605;51.516;6.742;2023-03-20T07:51:42;101788.50;;;7.21;100.00
31285;BME280;56605;51.516;6.742;2023-03-20T07:54:08;101801.91;;;7.19;100.00
31285;BME280;56605;51.516;6.742;2023-03-20T07:56:33;101792.72;;;7.35;100.00
31285;BME280;56605;51.516;6.742;2023-03-20T07:58:58;101796.94;;;7.38;100.00
31285;BME280;56605;51.516;6.742;2023-03-20T08:01:24;101799.47;;;7.39;100.00
31285;BME280;56605;51.516;6.742;2023-03-20T08:03:49;101800.94;;;7.43;100.00
31285;BME280;56605;51.516;6.742;2023-03-20T08:06:15;101803.72;;;7.53;100.00
31285;BME280;56605;51.516;6.742;2023-03-20T08:08:40;101804.66;;;7.52;100.00
31285;BME280;56605;51.516;6.742;2023-03-20T08:11:06;101805.06;;;7.59;100.00
31285;BME280;56605;51.516;6.742;2023-03-20T08:13:31;101813.50;;;7.64;100.00
31285;BME280;56605;51.516;6.742;2023-03-20T08:15:56;101811.56;;;7.66;100.00
31285;BME280;56605;51.516;6.742;2023-03-20T08:18:22;101810.00;;;7.64;100.00
31285;BME280;56605;51.516;6.742;2023-03-20T08:20:48;101813.97;;;7.81;100.00
31285;BME280;56605;51.516;6.742;2023-03-20T08:23:15;101813.88;;;7.59;100.00
31285;BME280;56605;51.516;6.742;2023-03-20T08:25:40;101814.69;;;7.60;100.00
31285;BME280;56605;51.516;6.742;2023-03-20T08:28:06;101814.22;;;7.66;100.00
31285;BME280;56605;51.516;6.742;2023-03-20T08:30:31;101819.91;;;7.61;100.00
31285;BME280;56605;51.516;6.742;2023-03-20T08:32:57;101814.84;;;7.70;100.00
31285;BME280;56605;51.516;6.742;2023-03-20T08:35:23;101815.66;;;7.70;100.00
31285;BME280;56605;51.516;6.742;2023-03-20T08:37:48;101815.53;;;7.72;100.00
31285;BME280;56605;51.516;6.742;2023-03-20T08:40:13;101812.88;;;7.72;100.00
31285;BME280;56605;51.516;6.742;2023-03-20T08:42:39;101807.94;;;7.79;100.00
31285;BME280;56605;51.516;6.742;2023-03-20T08:45:05;101812.41;;;7.78;100.00
31285;BME280;56605;51.516;6.742;2023-03-20T08:47:31;101811.78;;;7.86;100.00
31285;BME280;56605;51.516;6.742;2023-03-20T08:49:56;101801.00;;;7.99;100.00
31285;BME280;56605;51.516;6.742;2023-03-20T08:52:22;101807.44;;;7.96;100.00
31285;BME280;56605;51.516;6.742;2023-03-20T08:54:47;101807.56;;;7.95;100.00
31285;BME280;56605;51.516;6.742;2023-03-20T08:57:13;101803.06;;;7.95;100.00
31285;BME280;56605;51.516;6.742;2023-03-20T08:59:38;101812.38;;;7.90;100.00
31285;BME280;56605;51.516;6.742;2023-03-20T09:02:04;101798.13;;;7.79;100.00
31285;BME280;56605;51.516;6.742;2023-03-20T09:04:29;101801.63;;;7.91;100.00
31285;BME280;56605;51.516;6.742;2023-03-20T09:06:55;101799.31;;;7.98;100.00
31285;BME280;56605;51.516;6.742;2023-03-20T09:09:20;101806.31;;;7.99;100.00
31285;BME280;56605;51.516;6.742;2023-03-20T09:11:51;101805.84;;;8.05;100.00
31285;BME280;56605;51.516;6.742;2023-03-20T09:14:16;101807.44;;;7.96;100.00
31285;BME280;56605;51.516;6.742;2023-03-20T09:16:42;101797.50;;;7.98;100.00
31285;BME280;56605;51.516;6.742;2023-03-20T09:19:07;101807.88;;;8.02;100.00
31285;BME280;56605;51.516;6.742;2023-03-20T09:21:32;101808.94;;;8.10;100.00
31285;BME280;56605;51.516;6.742;2023-03-20T09:23:58;101802.06;;;8.08;100.00
31285;BME280;56605;51.516;6.742;2023-03-20T09:26:23;101796.50;;;8.11;100.00
31285;BME280;56605;51.516;6.742;2023-03-20T09:28:48;101798.31;;;8.10;100.00
31285;BME280;56605;51.516;6.742;2023-03-20T09:31:14;101801.09;;;8.09;100.00
31285;BME280;56605;51.516;6.742;2023-03-20T09:33:39;101803.75;;;8.09;100.00
31285;BME280;56605;51.516;6.742;2023-03-20T09:36:05;101799.66;;;8.05;100.00
31285;BME280;56605;51.516;6.742;2023-03-20T09:38:31;101803.78;;;7.97;100.00
31285;BME280;56605;51.516;6.742;2023-03-20T09:41:01;101813.56;;;8.08;100.00
31285;BME280;56605;51.516;6.742;2023-03-20T09:51:56;101813.38;;;8.33;100.00
31285;BME280;56605;51.516;6.742;2023-03-20T09:54:28;101811.69;;;8.32;100.00
31285;BME280;56605;51.516;6.742;2023-03-20T09:56:56;101810.69;;;8.33;100.00
31285;BME280;56605;51.516;6.742;2023-03-20T09:59:24;101813.56;;;8.41;100.00
31285;BME280;56605;51.516;6.742;2023-03-20T10:01:54;101811.31;;;8.36;100.00
31285;BME280;56605;51.516;6.742;2023-03-20T10:04:20;101812.88;;;8.39;100.00
31285;BME280;56605;51.516;6.742;2023-03-20T10:06:47;101814.22;;;8.33;100.00
31285;BME280;56605;51.516;6.742;2023-03-20T10:09:27;101813.38;;;8.33;100.00
31285;BME280;56605;51.516;6.742;2023-03-20T10:14:44;101811.69;;;8.32;100.00
31285;BME280;56605;51.516;6.742;2023-03-20T10:20:09;101810.28;;;8.49;100.00
31285;BME280;56605;51.516;6.742;2023-03-20T10:22:38;101814.78;;;8.37;100.00
31285;BME280;56605;51.516;6.742;2023-03-20T10:28:00;101801.44;;;8.60;100.00
31285;BME280;56605;51.516;6.742;2023-03-20T10:36:42;101802.22;;;8.72;100.00
31285;BME280;56605;51.516;6.742;2023-03-20T10:41:18;101809.16;;;8.84;100.00
31285;BME280;56605;51.516;6.742;2023-03-20T10:43:47;101802.03;;;8.85;100.00
31285;BME280;56605;51.516;6.742;2023-03-20T10:46:17;101798.66;;;8.61;100.00
31285;BME280;56605;51.516;6.742;2023-03-20T10:51:34;101799.16;;;8.55;100.00
31285;BME280;56605;51.516;6.742;2023-03-20T10:54:02;101803.53;;;8.45;100.00
31285;BME280;56605;51.516;6.742;2023-03-20T10:56:57;101803.56;;;8.33;100.00
31285;BME280;56605;51.516;6.742;2023-03-20T10:59:39;101798.06;;;8.46;100.00
31285;BME280;56605;51.516;6.742;2023-03-20T11:02:10;101796.50;;;8.55;100.00
31285;BME280;56605;51.516;6.742;2023-03-20T11:04:36;101796.94;;;8.60;100.00
31285;BME280;56605;51.516;6.742;2023-03-20T11:07:12;101797.03;;;8.70;100.00
31285;BME280;56605;51.516;6.742;2023-03-20T11:09:40;101792.88;;;8.45;100.00
31285;BME280;56605;51.516;6.742;2023-03-20T11:12:15;101785.78;;;8.34;100.00
31285;BME280;56605;51.516;6.742;2023-03-20T11:14:42;101790.28;;;8.33;100.00
31285;BME280;56605;51.516;6.742;2023-03-20T11:17:09;101788.13;;;8.27;100.00
31285;BME280;56605;51.516;6.742;2023-03-20T11:19:37;101783.66;;;8.28;100.00
31285;BME280;56605;51.516;6.742;2023-03-20T11:22:24;101783.78;;;8.47;100.00
31285;BME280;56605;51.516;6.742;2023-03-20T11:24:54;101782.31;;;8.66;100.00
31285;BME280;56605;51.516;6.742;2023-03-20T11:27:28;101786.69;;;8.44;100.00
31285;BME280;56605;51.516;6.742;2023-03-20T11:29:55;101790.16;;;8.35;100.00
31285;BME280;56605;51.516;6.742;2023-03-20T11:32:33;101784.16;;;8.21;100.00
31285;BME280;56605;51.516;6.742;2023-03-20T11:37:46;101780.13;;;8.27;100.00
31285;BME280;56605;51.516;6.742;2023-03-20T11:42:37;101777.72;;;8.24;100.00
31285;BME280;56605;51.516;6.742;2023-03-20T11:45:05;101780.69;;;8.31;100.00
31285;BME280;56605;51.516;6.742;2023-03-20T11:47:33;101774.72;;;8.17;100.00
31285;BME280;56605;51.516;6.742;2023-03-20T11:50:02;101779.94;;;8.07;100.00
31285;BME280;56605;51.516;6.742;2023-03-20T11:52:31;101785.22;;;7.86;100.00
31285;BME280;56605;51.516;6.742;2023-03-20T11:54:59;101774.69;;;7.84;100.00
31285;BME280;56605;51.516;6.742;2023-03-20T11:57:30;101783.91;;;7.80;100.00
31285;BME280;56605;51.516;6.742;2023-03-20T11:59:56;101788.47;;;7.78;100.00
31285;BME280;56605;51.516;6.742;2023-03-20T12:02:24;101784.75;;;7.69;100.00
31285;BME280;56605;51.516;6.742;2023-03-20T12:04:50;101782.91;;;7.81;100.00
31285;BME280;56605;51.516;6.742;2023-03-20T12:07:24;101787.75;;;7.88;100.00
31285;BME280;56605;51.516;6.742;2023-03-20T12:10:05;101785.59;;;7.58;100.00
31285;BME280;56605;51.516;6.742;2023-03-20T12:17:58;101775.56;;;7.73;100.00
31285;BME280;56605;51.516;6.742;2023-03-20T12:25:39;101771.41;;;7.92;100.00
31285;BME280;56605;51.516;6.742;2023-03-20T12:28:16;101772.63;;;7.99;100.00
31285;BME280;56605;51.516;6.742;2023-03-20T12:33:38;101768.72;;;7.92;100.00
31285;BME280;56605;51.516;6.742;2023-03-20T12:36:12;101763.69;;;7.89;100.00
31285;BME280;56605;51.516;6.742;2023-03-20T12:38:38;101766.81;;;7.94;100.00
31285;BME280;56605;51.516;6.742;2023-03-20T12:41:15;101760.75;;;7.92;100.00
31285;BME280;56605;51.516;6.742;2023-03-20T12:44:12;101748.28;;;8.04;100.00
31285;BME280;56605;51.516;6.742;2023-03-20T12:55:23;101729.31;;;8.52;100.00
31285;BME280;56605;51.516;6.742;2023-03-20T12:58:00;101718.44;;;8.55;100.00
31285;BME280;56605;51.516;6.742;2023-03-20T13:00:36;101720.88;;;8.25;100.00
31285;BME280;56605;51.516;6.742;2023-03-20T13:03:15;101721.53;;;8.38;100.00
31285;BME280;56605;51.516;6.742;2023-03-20T13:08:42;101718.28;;;8.14;100.00
31285;BME280;56605;51.516;6.742;2023-03-20T13:14:07;101721.22;;;7.99;100.00
31285;BME280;56605;51.516;6.742;2023-03-20T13:16:47;101722.84;;;8.11;100.00
31285;BME280;56605;51.516;6.742;2023-03-20T13:19:36;101725.06;;;8.06;100.00
31285;BME280;56605;51.516;6.742;2023-03-20T13:22:18;101715.34;;;8.17;100.00
31285;BME280;56605;51.516;6.742;2023-03-20T13:24:51;101718.72;;;8.19;100.00
31285;BME280;56605;51.516;6.742;2023-03-20T13:27:44;101709.97;;;8.28;100.00
31285;BME280;56605;51.516;6.742;2023-03-20T13:30:33;101698.03;;;8.22;100.00
31285;BME280;56605;51.516;6.742;2023-03-20T13:35:50;101706.34;;;8.29;100.00
31285;BME280;56605;51.516;6.742;2023-03-20T13:38:22;101706.44;;;8.39;100.00
31285;BME280;56605;51.516;6.742;2023-03-20T13:40:54;101701.88;;;8.51;100.00
31285;BME280;56605;51.516;6.742;2023-03-20T13:46:11;101721.13;;;8.55;100.00
31285;BME280;56605;51.516;6.742;2023-03-20T13:48:41;101716.44;;;8.47;100.00
31285;BME280;56605;51.516;6.742;2023-03-20T13:56:59;101709.78;;;8.20;100.00
31285;BME280;56605;51.516;6.742;2023-03-20T13:59:39;101705.38;;;8.30;100.00
31285;BME280;56605;51.516;6.742;2023-03-20T14:02:18;101693.69;;;8.21;100.00
31285;BME280;56605;51.516;6.742;2023-03-20T14:04:50;101685.59;;;8.23;100.00
31285;BME280;56605;51.516;6.742;2023-03-20T14:07:37;101687.47;;;8.32;100.00
31285;BME280;56605;51.516;6.742;2023-03-20T14:12:57;101685.56;;;8.56;100.00
31285;BME280;56605;51.516;6.742;2023-03-20T14:15:26;101683.03;;;8.54;100.00
31285;BME280;56605;51.516;6.742;2023-03-20T14:17:52;101677.41;;;8.57;100.00
31285;BME280;56605;51.516;6.742;2023-03-20T14:20:37;101671.19;;;8.47;100.00
31285;BME280;56605;51.516;6.742;2023-03-20T14:23:03;101666.69;;;8.47;100.00
31285;BME280;56605;51.516;6.742;2023-03-20T14:25:36;101664.63;;;8.51;100.00
31285;BME280;56605;51.516;6.742;2023-03-20T14:28:21;101662.16;;;8.59;100.00
31285;BME280;56605;51.516;6.742;2023-03-20T14:30:48;101669.91;;;8.62;100.00
31285;BME280;56605;51.516;6.742;2023-03-20T14:35:48;101663.09;;;8.80;100.00
31285;BME280;56605;51.516;6.742;2023-03-20T14:41:16;101656.84;;;8.59;100.00
31285;BME280;56605;51.516;6.742;2023-03-20T14:47:04;101664.38;;;8.85;100.00
31285;BME280;56605;51.516;6.742;2023-03-20T14:49:18;101669.28;;;8.80;100.00
31285;BME280;56605;51.516;6.742;2023-03-20T14:51:47;101659.28;;;8.72;100.00
31285;BME280;56605;51.516;6.742;2023-03-20T14:54:28;101647.94;;;8.70;100.00
31285;BME280;56605;51.516;6.742;2023-03-20T14:56:54;101654.72;;;8.84;100.00
31285;BME280;56605;51.516;6.742;2023-03-20T14:59:22;101651.38;;;8.82;100.00
31285;BME280;56605;51.516;6.742;2023-03-20T15:01:57;101640.25;;;8.77;100.00
31285;BME280;56605;51.516;6.742;2023-03-20T15:04:27;101654.22;;;8.69;100.00
31285;BME280;56605;51.516;6.742;2023-03-20T15:06:57;101635.22;;;8.53;100.00
31285;BME280;56605;51.516;6.742;2023-03-20T15:09:25;101635.16;;;8.43;100.00